Time;durP1;ratioP1;P1;durP2;ratioP2;P2;SDS_P1;SDS_P2;PMS_P1;PMS_P2;Temp;Humidity;BMP_temperature;BMP_pressure;BME280_temperature;BME280_humidity;BME280_pressure;Samples;Min_cycle;Max_cycle;Signal;HPM_P1;HPM_P2
2022/05/02 00:00:15;;;;;;;5.60;3.30;;;18.60;99.90;;;;;;5060663;28;20284;-76
2022/05/02 00:02:42;;;;;;;6.15;3.53;;;18.90;99.90;;;;;;5066181;28;20394;-77
2022/05/02 00:05:09;;;;;;;6.68;3.42;;;19.10;99.90;;;;;;5067350;28;20070;-77
2022/05/02 00:07:36;;;;;;;6.03;2.60;;;19.20;99.90;;;;;;5067006;28;20029;-69
2022/05/02 00:10:06;;;;;;;5.80;2.70;;;19.30;99.90;;;;;;5066744;28;20391;-69
2022/05/02 00:12:33;;;;;;;5.45;2.75;;;19.30;99.90;;;;;;5066226;28;20066;-68
2022/05/02 00:15:00;;;;;;;6.57;3.22;;;19.40;99.90;;;;;;5067494;28;20028;-68
2022/05/02 00:20:12;;;;;;;7.90;3.70;;;19.90;99.90;;;;;;5061110;28;20039;-74
2022/05/02 00:22:40;;;;;;;9.65;4.20;;;20.10;99.90;;;;;;5066815;28;20056;-68
2022/05/02 00:25:08;;;;;;;9.63;3.17;;;20.40;99.90;;;;;;5066403;28;20115;-68
2022/05/02 00:27:37;;;;;;;7.63;3.28;;;20.50;99.90;;;;;;5064957;28;20031;-68
2022/05/02 00:30:05;;;;;;;10.18;3.80;;;20.60;99.90;;;;;;5062758;28;20937;-77
2022/05/02 00:32:31;;;;;;;8.07;3.63;;;20.70;99.90;;;;;;5061437;28;20051;-75
2022/05/02 00:34:58;;;;;;;8.45;3.20;;;20.80;99.90;;;;;;5060298;28;20603;-69
2022/05/02 00:37:25;;;;;;;5.95;2.67;;;20.80;99.90;;;;;;5059209;28;20079;-76
2022/05/02 00:39:52;;;;;;;6.90;2.90;;;21.00;99.90;;;;;;5057567;28;20076;-69
2022/05/02 00:42:20;;;;;;;6.97;3.20;;;21.20;99.90;;;;;;5069716;28;20028;-75
2022/05/02 00:44:47;;;;;;;7.57;3.13;;;21.40;99.90;;;;;;5065643;28;20028;-70
2022/05/02 00:47:15;;;;;;;7.28;2.92;;;21.50;99.90;;;;;;5066788;28;20051;-74
2022/05/02 00:49:43;;;;;;;10.38;3.10;;;21.50;99.90;;;;;;5047871;28;20432;-76
2022/05/02 00:52:10;;;;;;;10.10;3.05;;;21.60;99.90;;;;;;5066031;28;20348;-69
2022/05/02 00:54:37;;;;;;;5.72;2.50;;;21.80;99.90;;;;;;5065390;28;20024;-69
2022/05/02 00:57:07;;;;;;;9.77;2.38;;;22.00;99.90;;;;;;5066052;28;20074;-68
2022/05/02 00:59:37;;;;;;;6.45;3.13;;;22.20;99.90;;;;;;5063666;28;20033;-68
2022/05/02 01:02:05;;;;;;;4.85;2.55;;;22.40;99.90;;;;;;5062256;28;20032;-69
2022/05/02 01:04:32;;;;;;;7.15;2.90;;;22.30;99.90;;;;;;5066117;28;20029;-68
2022/05/02 01:07:12;;;;;;;6.35;2.10;;;22.40;99.90;;;;;;5064952;28;20325;-70
2022/05/02 01:09:44;;;;;;;7.82;2.20;;;22.50;99.90;;;;;;5063645;28;20567;-73
2022/05/02 01:12:14;;;;;;;4.47;2.30;;;22.50;99.90;;;;;;5069794;28;20055;-70
2022/05/02 01:14:42;;;;;;;8.82;2.35;;;22.70;99.90;;;;;;5062765;28;20434;-70
2022/05/02 01:17:10;;;;;;;6.85;2.65;;;22.90;99.90;;;;;;5065926;28;20025;-69
2022/05/02 01:19:37;;;;;;;7.65;2.28;;;23.20;99.90;;;;;;5061754;28;20033;-68
2022/05/02 01:22:05;;;;;;;7.60;2.22;;;23.40;99.90;;;;;;5067992;28;20111;-69
2022/05/02 01:24:33;;;;;;;6.47;2.58;;;23.60;99.90;;;;;;5066600;28;20486;-71
2022/05/02 01:27:01;;;;;;;8.07;2.58;;;23.70;99.90;;;;;;5067557;28;20499;-70
2022/05/02 01:29:29;;;;;;;5.70;2.33;;;23.90;99.90;;;;;;5067789;28;20021;-70
2022/05/02 01:31:56;;;;;;;6.47;2.28;;;24.00;99.90;;;;;;5049213;28;20029;-69
2022/05/02 01:34:23;;;;;;;7.60;2.20;;;23.90;99.90;;;;;;5061576;28;20521;-72
2022/05/02 01:36:50;;;;;;;6.47;2.08;;;23.70;99.90;;;;;;5065192;28;20028;-75
2022/05/02 01:39:17;;;;;;;4.43;1.95;;;23.80;99.90;;;;;;5064519;28;20047;-73
2022/05/02 01:41:44;;;;;;;7.47;1.85;;;23.70;99.90;;;;;;5068650;28;20105;-67
2022/05/02 01:44:11;;;;;;;5.15;2.33;;;23.90;99.90;;;;;;5060567;28;20109;-68
2022/05/02 01:46:39;;;;;;;5.55;2.35;;;24.20;99.90;;;;;;5066390;28;20100;-69
2022/05/02 01:49:06;;;;;;;9.63;2.10;;;24.40;99.90;;;;;;5076469;28;20367;-67
2022/05/02 01:51:33;;;;;;;4.85;1.50;;;24.50;99.90;;;;;;5068236;28;20559;-73
2022/05/02 01:54:00;;;;;;;4.65;1.77;;;24.50;99.90;;;;;;5069705;28;20031;-71
2022/05/02 01:56:27;;;;;;;6.75;1.88;;;24.70;99.90;;;;;;5067919;28;20028;-70
2022/05/02 01:58:54;;;;;;;5.60;1.90;;;24.80;99.90;;;;;;5069532;28;20123;-63
2022/05/02 02:01:21;;;;;;;4.82;1.88;;;24.80;99.90;;;;;;5070561;28;20017;-66
2022/05/02 02:03:48;;;;;;;6.90;1.80;;;25.00;99.90;;;;;;5068167;28;20574;-67
2022/05/02 02:06:15;;;;;;;6.10;1.83;;;25.20;99.90;;;;;;5068729;28;20110;-63
2022/05/02 02:08:41;;;;;;;5.07;2.42;;;25.40;99.90;;;;;;5067789;28;20031;-70
2022/05/02 02:11:10;;;;;;;5.20;1.50;;;25.50;99.90;;;;;;5069308;28;20031;-64
2022/05/02 02:13:38;;;;;;;5.68;1.52;;;25.40;99.90;;;;;;5069107;28;20479;-63
2022/05/02 02:16:13;;;;;;;4.78;1.38;;;25.40;99.90;;;;;;5069416;28;20037;-68
2022/05/02 02:18:41;;;;;;;3.55;1.35;;;25.50;99.90;;;;;;5069849;28;20024;-65
2022/05/02 02:21:10;;;;;;;6.18;1.52;;;25.60;99.90;;;;;;5066041;28;20067;-65
2022/05/02 02:23:38;;;;;;;4.43;1.60;;;25.60;99.90;;;;;;5060902;28;20232;-65
2022/05/02 02:26:06;;;;;;;3.80;1.80;;;25.70;99.90;;;;;;5066240;28;20020;-65
2022/05/02 02:28:33;;;;;;;3.28;1.60;;;25.50;99.90;;;;;;5068043;28;20231;-66
2022/05/02 02:31:00;;;;;;;6.38;1.52;;;25.60;99.90;;;;;;5065995;28;20124;-64
2022/05/02 02:33:27;;;;;;;5.63;2.03;;;25.70;99.90;;;;;;5067970;28;20028;-64
2022/05/02 02:35:54;;;;;;;4.68;1.95;;;25.70;99.90;;;;;;5072324;28;20025;-66
2022/05/02 02:38:21;;;;;;;4.20;1.30;;;25.60;99.90;;;;;;5066177;28;20105;-64
2022/05/02 02:40:48;;;;;;;5.05;1.23;;;25.50;99.90;;;;;;5068620;28;20079;-65
2022/05/02 02:43:15;;;;;;;8.40;1.60;;;25.60;99.90;;;;;;5067338;28;20103;-64
2022/05/02 02:45:42;;;;;;;5.70;1.88;;;25.80;99.20;;;;;;5068884;28;20046;-67
2022/05/02 02:48:09;;;;;;;3.92;1.58;;;25.80;99.60;;;;;;5068042;28;20052;-71
2022/05/02 02:50:36;;;;;;;3.97;1.65;;;25.70;99.40;;;;;;5066840;28;20024;-64
2022/05/02 02:53:03;;;;;;;6.75;1.88;;;25.50;99.80;;;;;;5067787;28;20020;-72
2022/05/02 02:55:30;;;;;;;4.90;1.83;;;25.60;99.60;;;;;;5067381;28;20028;-63
2022/05/02 02:57:57;;;;;;;4.53;1.55;;;25.70;99.50;;;;;;5067185;28;20031;-64
2022/05/02 03:00:24;;;;;;;5.22;1.17;;;25.80;99.20;;;;;;5068060;28;20032;-66
2022/05/02 03:02:54;;;;;;;4.05;1.20;;;25.70;99.80;;;;;;5067062;28;20123;-64
2022/05/02 03:08:09;;;;;;;4.47;1.60;;;26.00;98.60;;;;;;5068281;28;20085;-67
2022/05/02 03:10:37;;;;;;;4.65;1.52;;;26.10;98.40;;;;;;5068744;28;20467;-64
2022/05/02 03:13:04;;;;;;;5.40;1.85;;;26.10;98.00;;;;;;5068503;28;20020;-63
2022/05/02 03:15:33;;;;;;;4.40;1.38;;;25.70;98.30;;;;;;5068728;28;20027;-68
2022/05/02 03:18:00;;;;;;;6.18;1.80;;;25.50;99.30;;;;;;5064616;28;20066;-64
2022/05/02 03:20:27;;;;;;;8.35;1.48;;;25.60;99.20;;;;;;5059139;28;20411;-64
2022/05/02 03:22:54;;;;;;;5.18;1.55;;;25.50;99.50;;;;;;5066154;28;20089;-69
2022/05/02 03:25:21;;;;;;;6.30;1.52;;;25.70;99.00;;;;;;5069059;28;20441;-65
2022/05/02 03:27:47;;;;;;;5.63;1.45;;;25.80;98.80;;;;;;5066346;28;20024;-68
2022/05/02 03:30:14;;;;;;;5.05;1.17;;;26.00;99.10;;;;;;5065388;28;20016;-63
2022/05/02 03:32:41;;;;;;;4.82;1.30;;;26.10;98.80;;;;;;5067223;28;20017;-66
2022/05/02 03:35:09;;;;;;;5.32;1.13;;;26.20;98.20;;;;;;5068177;28;20120;-69
2022/05/02 03:37:37;;;;;;;4.93;1.20;;;26.30;97.80;;;;;;5069316;28;20060;-64
2022/05/02 03:40:05;;;;;;;9.00;1.80;;;26.30;97.30;;;;;;5073615;28;20032;-64
2022/05/02 03:42:32;;;;;;;4.03;1.20;;;26.30;98.10;;;;;;5067708;28;20062;-64
2022/05/02 03:45:00;;;;;;;4.68;1.35;;;26.20;97.90;;;;;;5066827;28;20062;-66
2022/05/02 03:47:28;;;;;;;4.95;1.30;;;26.20;97.80;;;;;;5067715;28;20489;-65
2022/05/02 03:49:55;;;;;;;4.95;1.75;;;26.10;98.00;;;;;;5067208;28;20418;-70
2022/05/02 03:52:22;;;;;;;3.72;1.20;;;26.00;97.50;;;;;;5061737;28;20155;-68
2022/05/02 03:54:49;;;;;;;5.75;1.83;;;26.00;97.90;;;;;;5061829;28;20032;-71
2022/05/02 03:57:16;;;;;;;4.32;1.65;;;26.00;98.10;;;;;;5065843;28;20095;-68
2022/05/02 03:59:43;;;;;;;6.00;1.83;;;26.20;98.50;;;;;;5062175;28;20025;-66
2022/05/02 04:02:10;;;;;;;2.90;1.15;;;26.40;98.10;;;;;;5064197;28;20500;-66
2022/05/02 04:04:37;;;;;;;6.28;1.90;;;26.50;98.00;;;;;;5058553;28;20020;-66
2022/05/02 04:07:04;;;;;;;4.97;1.60;;;26.50;98.20;;;;;;5064909;28;20028;-65
2022/05/02 04:09:31;;;;;;;8.00;5.38;;;26.30;98.20;;;;;;5059139;28;20071;-65
2022/05/02 04:11:58;;;;;;;5.93;1.90;;;26.10;98.30;;;;;;5063608;28;20012;-70
2022/05/02 04:14:25;;;;;;;6.05;1.65;;;26.30;98.20;;;;;;5057623;28;20020;-71
2022/05/02 04:16:52;;;;;;;5.13;1.40;;;26.40;97.00;;;;;;5056322;28;20093;-72
2022/05/02 04:19:19;;;;;;;5.78;3.20;;;26.50;97.40;;;;;;5061017;28;20382;-65
2022/05/02 04:21:46;;;;;;;4.97;2.15;;;26.70;97.80;;;;;;5060231;28;20082;-66
2022/05/02 04:24:14;;;;;;;4.28;1.60;;;26.90;97.40;;;;;;5058626;28;20021;-68
2022/05/02 04:26:41;;;;;;;2.60;1.17;;;27.10;97.00;;;;;;5062633;28;20016;-66
2022/05/02 04:29:08;;;;;;;5.03;1.25;;;27.20;96.80;;;;;;5060369;28;20044;-71
2022/05/02 04:31:35;;;;;;;6.82;2.88;;;27.30;96.90;;;;;;5059255;28;20535;-68
2022/05/02 04:34:02;;;;;;;2.85;1.45;;;27.30;97.30;;;;;;5056077;28;20025;-65
2022/05/02 04:36:29;;;;;;;5.32;1.67;;;26.90;97.10;;;;;;5060683;28;20667;-70
2022/05/02 04:38:55;;;;;;;6.47;1.75;;;26.70;97.70;;;;;;5060879;28;20064;-70
2022/05/02 04:41:22;;;;;;;3.55;1.50;;;26.80;97.80;;;;;;5055557;28;20064;-65
2022/05/02 04:43:51;;;;;;;3.50;1.75;;;27.20;97.00;;;;;;5063598;28;20574;-68
2022/05/02 04:46:20;;;;;;;3.65;1.20;;;27.30;97.10;;;;;;5058311;28;20023;-69
2022/05/02 04:48:47;;;;;;;4.53;1.38;;;27.20;96.30;;;;;;5065082;28;20022;-65
2022/05/02 04:51:14;;;;;;;3.90;1.58;;;27.10;96.80;;;;;;5059304;28;20097;-65
2022/05/02 04:53:41;;;;;;;5.47;1.42;;;27.20;97.00;;;;;;5059276;28;20127;-64
2022/05/02 04:56:08;;;;;;;4.30;1.90;;;27.30;97.00;;;;;;5059853;28;20016;-66
2022/05/02 04:58:35;;;;;;;5.70;1.70;;;27.30;96.60;;;;;;5064163;28;20602;-65
2022/05/02 05:01:05;;;;;;;5.45;2.42;;;27.30;97.00;;;;;;5059794;28;20098;-68
2022/05/02 05:03:32;;;;;;;3.63;1.50;;;27.40;97.10;;;;;;5059713;28;20032;-65
2022/05/02 05:05:58;;;;;;;6.32;2.72;;;26.90;97.50;;;;;;5057523;28;20506;-69
2022/05/02 05:08:25;;;;;;;9.15;1.77;;;26.80;97.70;;;;;;5066626;28;20646;-68
2022/05/02 05:11:01;;;;;;;4.03;1.63;;;26.80;98.10;;;;;;5055867;28;20028;-65
2022/05/02 05:13:39;;;;;;;3.55;1.48;;;26.60;98.10;;;;;;5061005;28;20099;-68
2022/05/02 05:16:33;;;;;;;5.40;1.88;;;26.40;98.70;;;;;;5058759;28;20077;-67
2022/05/02 05:19:11;;;;;;;4.10;2.47;;;26.30;97.90;;;;;;5062451;28;20028;-67
2022/05/02 05:21:55;;;;;;;3.78;2.25;;;26.40;97.80;;;;;;5063442;28;20062;-69
2022/05/02 05:24:34;;;;;;;5.45;1.73;;;26.50;97.90;;;;;;5062150;28;20422;-66
2022/05/02 05:27:36;;;;;;;5.30;2.63;;;26.50;98.00;;;;;;5055016;28;20059;-66
2022/05/02 05:30:08;;;;;;;3.42;1.67;;;26.80;96.90;;;;;;5057530;28;20028;-66
2022/05/02 05:32:56;;;;;;;4.80;1.77;;;27.10;97.30;;;;;;5058766;28;20465;-69
2022/05/02 05:35:33;;;;;;;5.88;1.70;;;27.20;97.20;;;;;;5057434;28;20357;-67
2022/05/02 05:38:10;;;;;;;3.28;1.25;;;27.30;97.00;;;;;;5064997;28;20510;-69
2022/05/02 05:40:39;;;;;;;3.30;1.42;;;27.50;97.40;;;;;;5058658;28;20110;-68
2022/05/02 05:43:25;;;;;;;5.18;1.50;;;27.60;97.00;;;;;;5063505;28;20021;-67
2022/05/02 05:45:55;;;;;;;4.03;1.63;;;27.60;96.30;;;;;;5061754;28;20029;-68
2022/05/02 05:48:57;;;;;;;5.43;2.15;;;27.50;96.40;;;;;;5065180;28;20397;-70
2022/05/02 05:51:42;;;;;;;3.08;1.50;;;27.50;96.60;;;;;;5060725;28;20024;-70
2022/05/02 05:54:40;;;;;;;3.80;1.10;;;27.70;95.70;;;;;;5046314;28;20465;-68
2022/05/02 05:57:47;;;;;;;7.10;1.83;;;27.90;95.90;;;;;;5063036;28;20130;-67
2022/05/02 06:00:15;;;;;;;6.78;1.98;;;28.10;96.20;;;;;;5061033;28;20024;-68
2022/05/02 06:02:54;;;;;;;3.28;1.88;;;27.90;96.20;;;;;;5057079;28;20024;-67
2022/05/02 06:05:22;;;;;;;2.38;1.40;;;28.10;95.70;;;;;;5059320;28;20028;-67
2022/05/02 06:07:52;;;;;;;4.38;1.70;;;28.10;95.60;;;;;;5060530;28;20032;-68
2022/05/02 06:10:20;;;;;;;4.13;1.40;;;28.20;95.90;;;;;;5059424;28;20021;-73
2022/05/02 06:12:49;;;;;;;4.93;1.27;;;27.90;95.60;;;;;;5061668;28;20363;-69
2022/05/02 06:20:55;;;;;;;3.72;1.20;;;27.90;95.80;;;;;;5059992;28;20414;-68
2022/05/02 06:23:23;;;;;;;3.13;1.40;;;28.10;95.50;;;;;;5064001;28;20502;-67
2022/05/02 06:25:53;;;;;;;2.70;1.25;;;27.80;95.40;;;;;;5060699;28;20115;-68
2022/05/02 06:28:23;;;;;;;6.15;1.50;;;27.60;96.20;;;;;;5066792;28;20103;-66
2022/05/02 06:30:52;;;;;;;4.85;1.60;;;27.30;96.80;;;;;;5066575;28;20471;-66
2022/05/02 06:33:21;;;;;;;6.05;1.40;;;27.00;96.80;;;;;;5065012;28;20441;-67
2022/05/02 06:36:01;;;;;;;3.92;1.40;;;26.70;97.00;;;;;;5068709;28;20034;-65
2022/05/02 06:39:04;;;;;;;6.88;1.88;;;26.80;96.70;;;;;;5066927;28;20040;-69
2022/05/02 06:42:01;;;;;;;5.90;1.83;;;26.30;97.60;;;;;;5068492;28;20044;-69
2022/05/02 06:45:22;;;;;;;4.10;1.45;;;26.00;98.20;;;;;;5060419;28;20029;-67
2022/05/02 06:48:13;;;;;;;7.57;1.73;;;25.70;99.00;;;;;;5015752;28;20030;-68
2022/05/02 06:50:45;;;;;;;5.47;1.60;;;25.20;99.90;;;;;;5016783;28;20037;-69
2022/05/02 06:53:20;;;;;;;4.70;1.60;;;25.00;99.90;;;;;;5012895;28;20140;-69
2022/05/02 06:56:16;;;;;;;7.07;1.80;;;24.80;99.90;;;;;;5016527;28;20320;-66
2022/05/02 06:58:52;;;;;;;4.20;1.42;;;24.00;99.90;;;;;;5014962;28;20049;-69
2022/05/02 07:01:31;;;;;;;3.33;1.60;;;23.70;99.90;;;;;;5017437;28;20042;-66
2022/05/02 07:04:25;;;;;;;5.03;1.40;;;23.40;99.90;;;;;;5016060;28;20795;-63
2022/05/02 07:06:52;;;;;;;3.25;1.45;;;23.00;99.90;;;;;;5016553;28;20029;-62
2022/05/02 07:09:28;;;;;;;4.30;1.63;;;22.70;99.90;;;;;;5016824;28;20802;-68
2022/05/02 07:12:17;;;;;;;4.80;1.55;;;22.40;99.90;;;;;;5017833;28;20037;-67
2022/05/02 07:14:55;;;;;;;5.05;1.70;;;22.20;99.90;;;;;;5015142;28;20057;-68
2022/05/02 07:17:37;;;;;;;4.88;1.85;;;21.90;99.90;;;;;;5021833;28;20041;-63
2022/05/02 07:20:08;;;;;;;9.35;2.10;;;21.70;99.90;;;;;;5065255;28;20099;-68
2022/05/02 07:22:44;;;;;;;4.82;1.73;;;21.40;99.90;;;;;;5065961;28;20032;-67
2022/05/02 07:25:14;;;;;;;6.65;1.95;;;21.20;99.90;;;;;;5063786;28;20029;-67
2022/05/02 07:28:04;;;;;;;6.00;2.33;;;20.90;99.90;;;;;;5058336;28;20065;-62
2022/05/02 07:30:32;;;;;;;6.07;2.08;;;20.70;99.90;;;;;;5059517;28;20391;-63
2022/05/02 07:33:02;;;;;;;3.53;1.55;;;20.60;99.90;;;;;;5060782;28;20027;-64
2022/05/02 07:35:31;;;;;;;6.47;2.28;;;20.40;99.90;;;;;;5059196;28;20396;-67
2022/05/02 07:37:59;;;;;;;4.53;2.33;;;20.30;99.90;;;;;;5058883;28;20049;-69
2022/05/02 07:40:26;;;;;;;7.20;3.13;;;20.20;99.90;;;;;;5060789;28;20040;-64
2022/05/02 07:42:54;;;;;;;5.20;2.50;;;20.00;99.90;;;;;;5063330;28;20031;-70
2022/05/02 07:45:32;;;;;;;10.35;4.13;;;20.00;99.90;;;;;;5062892;28;20294;-65
2022/05/02 07:48:03;;;;;;;9.60;3.60;;;19.90;99.90;;;;;;5059247;28;20449;-64
2022/05/02 07:50:31;;;;;;;6.68;3.85;;;19.90;99.90;;;;;;5062720;28;20029;-70
2022/05/02 07:53:00;;;;;;;10.30;4.95;;;19.90;99.90;;;;;;5060539;28;20055;-69
2022/05/02 07:55:31;;;;;;;6.18;4.00;;;19.90;99.90;;;;;;5063164;28;20025;-71
2022/05/02 07:57:58;;;;;;;7.65;3.40;;;19.70;99.90;;;;;;5061224;28;20066;-65
2022/05/02 08:00:25;;;;;;;7.00;3.40;;;19.70;99.90;;;;;;5060036;28;20028;-68
2022/05/02 08:02:52;;;;;;;9.02;5.05;;;19.60;99.90;;;;;;5059604;28;20398;-71
2022/05/02 08:05:28;;;;;;;7.50;3.88;;;19.50;99.90;;;;;;5043990;28;20025;-69
2022/05/02 08:08:07;;;;;;;6.53;3.70;;;19.40;99.90;;;;;;5060773;28;20024;-70
2022/05/02 08:11:12;;;;;;;8.27;3.53;;;19.20;99.90;;;;;;5061622;28;20043;-69
2022/05/02 08:13:57;;;;;;;9.57;3.65;;;19.10;99.90;;;;;;5060781;28;20032;-69
2022/05/02 08:16:26;;;;;;;6.38;3.20;;;19.00;99.90;;;;;;5062102;28;20033;-69
2022/05/02 08:19:40;;;;;;;6.10;3.55;;;18.90;99.90;;;;;;5063017;28;20107;-68
2022/05/02 08:28:09;;;;;;;14.57;4.82;;;18.70;99.90;;;;;;5000066;28;20165;-68
2022/05/02 08:31:12;;;;;;;9.48;4.07;;;18.60;99.90;;;;;;5001427;28;20124;-69
2022/05/02 08:34:00;;;;;;;10.20;4.25;;;18.60;99.90;;;;;;5000067;28;20026;-68
2022/05/02 08:36:45;;;;;;;7.82;4.28;;;18.60;99.90;;;;;;5000529;28;20026;-67
2022/05/02 08:39:15;;;;;;;6.78;3.50;;;18.50;99.90;;;;;;5000446;28;20069;-69
2022/05/02 08:42:20;;;;;;;7.90;3.50;;;18.40;99.90;;;;;;5000025;28;20044;-67
2022/05/02 08:45:16;;;;;;;8.35;4.00;;;18.30;99.90;;;;;;4952708;28;20509;-70
2022/05/02 08:48:04;;;;;;;7.57;3.53;;;18.20;99.90;;;;;;4951325;28;20035;-68
2022/05/02 08:50:49;;;;;;;7.72;3.55;;;18.30;99.90;;;;;;4955893;28;20026;-70
2022/05/02 08:53:55;;;;;;;6.07;3.47;;;18.20;99.90;;;;;;4952619;28;20407;-68
2022/05/02 08:56:28;;;;;;;9.65;3.83;;;18.20;99.90;;;;;;4950532;28;20138;-71
2022/05/02 08:59:15;;;;;;;7.28;4.10;;;18.10;99.90;;;;;;4994298;28;20045;-65
2022/05/02 09:01:45;;;;;;;4.10;2.60;;;18.20;99.90;;;;;;5006611;28;20055;-67
2022/05/02 09:04:42;;;;;;;6.70;3.65;;;18.10;99.90;;;;;;5007428;28;20029;-65
2022/05/02 09:07:26;;;;;;;8.63;3.70;;;17.90;99.90;;;;;;5011356;28;20017;-69
2022/05/02 09:10:23;;;;;;;5.07;2.83;;;17.90;99.90;;;;;;5010916;28;20392;-72
2022/05/02 09:13:11;;;;;;;7.30;3.83;;;17.90;99.90;;;;;;5010816;28;20620;-65
2022/05/02 09:15:50;;;;;;;9.48;3.10;;;17.80;99.90;;;;;;5015214;28;20137;-68
2022/05/02 09:18:23;;;;;;;6.68;3.30;;;17.60;99.90;;;;;;5011341;28;20120;-66
2022/05/02 09:21:30;;;;;;;7.10;3.47;;;17.60;99.90;;;;;;5031356;28;20163;-68
2022/05/02 09:24:21;;;;;;;8.07;3.75;;;17.60;99.90;;;;;;5061743;28;20064;-67
2022/05/02 09:27:25;;;;;;;9.63;3.90;;;17.50;99.90;;;;;;5060178;28;20395;-67
2022/05/02 09:30:22;;;;;;;8.88;3.95;;;17.60;99.90;;;;;;5062142;28;20030;-66
2022/05/02 09:33:01;;;;;;;7.15;3.95;;;17.50;99.90;;;;;;5059297;28;20583;-68
2022/05/02 09:35:40;;;;;;;7.75;3.60;;;17.40;99.90;;;;;;5062564;28;20025;-66
2022/05/02 09:38:24;;;;;;;7.25;3.63;;;17.50;99.90;;;;;;5062627;28;20498;-65
2022/05/02 09:40:59;;;;;;;8.25;3.65;;;17.40;99.90;;;;;;5060429;28;20442;-67
2022/05/02 09:50:08;;;;;;;6.47;3.50;;;17.30;99.90;;;;;;4968837;28;20934;-66
2022/05/02 09:53:02;;;;;;;7.90;3.83;;;17.20;99.90;;;;;;4968006;28;20082;-66
2022/05/02 09:59:23;;;;;;;7.88;3.60;;;17.10;99.90;;;;;;5007548;28;20037;-67
2022/05/02 10:02:01;;;;;;;8.90;4.03;;;16.90;99.90;;;;;;5009284;28;20412;-67
2022/05/02 10:04:34;;;;;;;6.95;3.50;;;17.00;99.90;;;;;;5008013;28;20103;-67
2022/05/02 10:07:11;;;;;;;10.55;3.50;;;16.90;99.90;;;;;;5009636;28;20044;-69
2022/05/02 10:10:01;;;;;;;6.70;3.25;;;16.80;99.90;;;;;;5014304;28;20037;-69
2022/05/02 10:12:51;;;;;;;8.35;4.07;;;16.70;99.90;;;;;;5012462;28;20033;-68
2022/05/02 10:15:24;;;;;;;7.43;4.75;;;16.70;99.90;;;;;;5012482;28;20041;-69
2022/05/02 10:18:04;;;;;;;7.35;4.93;;;16.60;99.90;;;;;;5012791;28;20204;-71
2022/05/02 10:20:54;;;;;;;8.65;3.45;;;16.50;99.90;;;;;;5012191;28;20416;-63
2022/05/02 10:23:34;;;;;;;5.68;2.90;;;16.50;99.90;;;;;;5016750;28;20045;-73
2022/05/02 10:26:18;;;;;;;5.97;2.67;;;16.40;99.90;;;;;;5023597;28;20061;-69
2022/05/02 10:29:19;;;;;;;7.07;3.35;;;16.40;99.90;;;;;;4997484;28;20097;-70
2022/05/02 10:31:58;;;;;;;10.60;4.65;;;16.40;99.90;;;;;;5062100;28;20159;-72
2022/05/02 10:34:28;;;;;;;6.13;3.50;;;16.30;99.90;;;;;;5062846;28;20024;-67
2022/05/02 10:36:59;;;;;;;6.07;3.90;;;16.30;99.90;;;;;;5073720;22;20062;-69
2022/05/02 10:39:40;;;;;;;6.53;3.38;;;16.40;99.90;;;;;;5033925;28;20399;-68
2022/05/02 10:42:10;;;;;;;7.72;3.63;;;16.30;99.90;;;;;;5031470;28;20025;-68
2022/05/02 10:44:58;;;;;;;10.43;5.38;;;16.30;99.90;;;;;;5015077;28;20147;-67
2022/05/02 10:47:27;;;;;;;8.02;3.80;;;16.20;99.90;;;;;;5034823;28;20036;-66
2022/05/02 10:50:19;;;;;;;9.57;4.07;;;16.20;99.90;;;;;;5033893;28;20039;-67
2022/05/02 10:52:56;;;;;;;6.95;3.70;;;16.00;99.90;;;;;;5036791;28;20108;-68
2022/05/02 10:55:31;;;;;;;10.77;5.55;;;15.90;99.90;;;;;;5039585;28;20029;-68
2022/05/02 10:58:04;;;;;;;8.02;4.85;;;15.80;99.90;;;;;;5034411;28;20032;-66
2022/05/02 11:00:33;;;;;;;10.23;5.82;;;15.80;99.90;;;;;;5035698;28;20025;-67
2022/05/02 11:03:09;;;;;;;9.57;6.95;;;15.70;99.90;;;;;;5035004;28;20035;-69
2022/05/02 11:05:42;;;;;;;11.43;5.22;;;15.60;99.90;;;;;;5035451;28;20668;-70
2022/05/02 11:08:29;;;;;;;11.77;5.35;;;15.60;99.90;;;;;;5034008;28;20033;-69
2022/05/02 11:11:05;;;;;;;8.13;4.53;;;15.50;99.90;;;;;;5033655;28;20136;-66
2022/05/02 11:14:13;;;;;;;8.55;5.10;;;15.50;99.90;;;;;;5037925;28;20025;-69
2022/05/02 11:17:08;;;;;;;7.68;4.93;;;15.40;99.90;;;;;;4979906;28;20547;-68
2022/05/02 11:23:26;;;;;;;8.43;4.55;;;15.30;99.90;;;;;;4942135;28;20125;-68
2022/05/02 11:26:11;;;;;;;9.57;4.75;;;15.30;99.90;;;;;;4927891;28;20058;-68
2022/05/02 11:28:59;;;;;;;11.43;5.28;;;15.30;99.90;;;;;;4940818;28;20035;-70
2022/05/02 11:31:44;;;;;;;8.07;4.50;;;15.50;99.90;;;;;;4943710;28;20494;-66
2022/05/02 11:34:45;;;;;;;10.68;5.15;;;15.50;99.90;;;;;;4949845;28;20805;-66
2022/05/02 11:37:41;;;;;;;10.00;5.00;;;15.50;99.90;;;;;;4949656;28;20357;-64
2022/05/02 11:40:12;;;;;;;9.98;4.60;;;15.40;99.90;;;;;;4943766;28;20035;-66
2022/05/02 11:42:46;;;;;;;11.30;4.70;;;15.40;99.90;;;;;;4943382;28;20036;-64
2022/05/02 11:45:17;;;;;;;10.05;5.63;;;15.40;99.90;;;;;;4946544;28;20518;-65
2022/05/02 11:48:09;;;;;;;8.15;4.88;;;15.40;99.90;;;;;;4944155;28;20050;-67
2022/05/02 11:50:56;;;;;;;7.75;5.50;;;15.30;99.90;;;;;;4943444;28;20043;-64
2022/05/02 11:53:29;;;;;;;6.82;5.10;;;15.30;99.90;;;;;;4929431;28;20397;-64
2022/05/02 11:56:02;;;;;;;11.98;4.50;;;15.20;99.90;;;;;;4968925;28;20085;-66
2022/05/02 11:58:48;;;;;;;7.47;4.97;;;15.20;99.90;;;;;;5024239;28;20116;-64
2022/05/02 12:01:25;;;;;;;9.05;5.47;;;15.20;99.90;;;;;;5012240;28;20059;-64
2022/05/02 12:04:00;;;;;;;8.85;4.95;;;15.20;99.90;;;;;;5020604;28;20034;-66
2022/05/02 12:06:32;;;;;;;11.57;5.65;;;15.20;99.90;;;;;;5018839;28;20025;-68
2022/05/02 12:09:04;;;;;;;9.55;5.70;;;15.10;99.90;;;;;;5017501;28;20597;-68
2022/05/02 12:11:32;;;;;;;8.80;6.37;;;15.10;99.90;;;;;;5018597;28;20017;-68
2022/05/02 12:14:01;;;;;;;11.18;5.57;;;15.00;99.90;;;;;;5017759;28;20017;-66
2022/05/02 12:16:33;;;;;;;12.88;6.40;;;15.10;99.90;;;;;;5017558;28;20029;-67
2022/05/02 12:19:04;;;;;;;10.13;5.65;;;15.00;99.90;;;;;;5016202;28;20427;-67
2022/05/02 12:21:39;;;;;;;9.55;5.95;;;15.10;99.90;;;;;;5019343;28;20029;-67
2022/05/02 12:24:07;;;;;;;9.35;6.20;;;15.10;99.90;;;;;;5022919;28;20033;-70
2022/05/02 12:26:52;;;;;;;9.50;6.15;;;15.10;99.90;;;;;;5017289;28;20039;-66
2022/05/02 12:29:19;;;;;;;9.98;6.32;;;15.10;99.90;;;;;;5019748;28;20516;-67
2022/05/02 12:31:59;;;;;;;13.73;8.07;;;15.00;99.90;;;;;;5017720;28;20037;-66
2022/05/02 12:34:40;;;;;;;10.13;6.63;;;15.10;99.90;;;;;;5024544;28;20029;-67
2022/05/02 12:37:39;;;;;;;9.50;6.13;;;15.00;99.90;;;;;;5015440;28;20081;-65
2022/05/02 12:40:18;;;;;;;8.13;6.40;;;15.00;99.90;;;;;;4964894;28;20102;-64
2022/05/02 12:42:55;;;;;;;10.02;6.03;;;14.90;99.90;;;;;;4965233;28;20497;-67
2022/05/02 12:45:24;;;;;;;9.90;5.78;;;14.80;99.90;;;;;;4965841;28;20042;-66
2022/05/02 12:47:55;;;;;;;14.57;6.60;;;14.90;99.90;;;;;;4965083;28;20031;-66
2022/05/02 12:50:28;;;;;;;8.50;5.33;;;14.80;99.90;;;;;;4963357;28;20031;-65
2022/05/02 12:52:55;;;;;;;9.82;6.22;;;14.80;99.90;;;;;;4964620;28;20280;-68
2022/05/02 12:55:29;;;;;;;8.55;5.15;;;14.80;99.90;;;;;;4963395;28;20051;-64
2022/05/02 13:00:48;;;;;;;8.75;6.60;;;14.80;99.90;;;;;;4964628;28;20042;-64
2022/05/02 13:03:19;;;;;;;11.32;5.82;;;14.90;99.90;;;;;;4966935;28;20090;-63
2022/05/02 13:05:59;;;;;;;11.60;6.20;;;14.90;99.90;;;;;;4968132;28;20030;-66
2022/05/02 13:08:44;;;;;;;11.40;6.47;;;14.90;99.90;;;;;;4964791;28;20058;-64
2022/05/02 13:11:13;;;;;;;9.80;5.57;;;15.00;99.90;;;;;;4965490;28;20035;-65
2022/05/02 13:13:45;;;;;;;9.05;5.88;;;15.10;99.90;;;;;;4964955;28;20614;-65
2022/05/02 13:16:36;;;;;;;15.50;6.82;;;15.10;99.90;;;;;;4986974;28;20124;-67
2022/05/02 13:19:04;;;;;;;8.18;6.07;;;15.10;99.90;;;;;;4972748;28;20042;-65
2022/05/02 13:21:32;;;;;;;11.18;6.35;;;15.20;99.90;;;;;;4972005;28;20097;-64
2022/05/02 13:24:12;;;;;;;9.70;6.25;;;15.30;99.90;;;;;;4977402;28;20038;-65
2022/05/02 13:26:53;;;;;;;8.13;5.80;;;15.40;99.90;;;;;;4970854;28;20053;-67
2022/05/02 13:29:28;;;;;;;11.05;6.45;;;15.40;99.90;;;;;;4967042;28;20031;-66
2022/05/02 13:32:04;;;;;;;8.68;5.93;;;15.50;99.90;;;;;;4971787;28;20046;-66
2022/05/02 13:34:45;;;;;;;10.00;5.43;;;15.50;99.90;;;;;;4973527;28;20038;-64
2022/05/02 13:37:33;;;;;;;9.25;5.38;;;15.50;99.90;;;;;;4969543;28;20545;-65
2022/05/02 13:40:09;;;;;;;8.20;4.45;;;15.60;99.90;;;;;;4983998;28;20088;-66
2022/05/02 13:42:39;;;;;;;11.65;4.93;;;15.60;99.90;;;;;;4969956;28;20043;-66
2022/05/02 13:45:41;;;;;;;8.38;4.82;;;15.60;99.90;;;;;;4973232;28;20058;-65
2022/05/02 13:48:13;;;;;;;9.57;4.78;;;15.70;99.90;;;;;;4979445;28;20026;-66
2022/05/02 13:50:42;;;;;;;;;;;15.70;99.90;;;;;;4972877;28;20038;-66
2022/05/02 13:53:18;;;;;;;7.25;4.75;;;15.80;99.90;;;;;;4971700;28;19949;-66
2022/05/02 13:55:50;;;;;;;9.55;4.47;;;15.70;99.90;;;;;;4984135;28;20101;-67
2022/05/02 13:58:59;;;;;;;9.20;4.35;;;15.70;99.90;;;;;;5008848;28;20499;-66